sensor_id;sensor_type;location;lat;lon;timestamp;P1;durP1;ratioP1;P2;durP2;ratioP2
41861;SDS011;27537;57.134;-2.136;2023-03-01T00:01:16;7.15;;;1.65;;
41861;SDS011;27537;57.134;-2.136;2023-03-01T00:03:45;6.03;;;2.05;;
41861;SDS011;27537;57.134;-2.136;2023-03-01T00:06:12;4.40;;;1.58;;
41861;SDS011;27537;57.134;-2.136;2023-03-01T00:08:39;5.07;;;1.42;;
41861;SDS011;27537;57.134;-2.136;2023-03-01T00:13:41;8.20;;;2.25;;
41861;SDS011;27537;57.134;-2.136;2023-03-01T00:16:13;6.05;;;1.83;;
41861;SDS011;27537;57.134;-2.136;2023-03-01T00:18:44;10.48;;;2.83;;
41861;SDS011;27537;57.134;-2.136;2023-03-01T00:21:12;13.40;;;3.10;;
41861;SDS011;27537;57.134;-2.136;2023-03-01T00:23:39;9.07;;;2.22;;
41861;SDS011;27537;57.134;-2.136;2023-03-01T00:26:07;9.50;;;2.72;;
41861;SDS011;27537;57.134;-2.136;2023-03-01T00:28:35;8.02;;;1.90;;
41861;SDS011;27537;57.134;-2.136;2023-03-01T00:31:05;5.90;;;1.60;;
41861;SDS011;27537;57.134;-2.136;2023-03-01T00:33:34;7.60;;;2.17;;
41861;SDS011;27537;57.134;-2.136;2023-03-01T00:36:00;12.60;;;1.75;;
41861;SDS011;27537;57.134;-2.136;2023-03-01T00:38:28;7.50;;;1.77;;
41861;SDS011;27537;57.134;-2.136;2023-03-01T00:40:55;7.00;;;1.65;;
41861;SDS011;27537;57.134;-2.136;2023-03-01T00:43:21;5.40;;;1.63;;
41861;SDS011;27537;57.134;-2.136;2023-03-01T00:45:48;5.82;;;1.60;;
41861;SDS011;27537;57.134;-2.136;2023-03-01T00:48:15;10.18;;;1.80;;
41861;SDS011;27537;57.134;-2.136;2023-03-01T00:50:42;5.80;;;1.52;;
41861;SDS011;27537;57.134;-2.136;2023-03-01T00:53:33;5.28;;;1.70;;
41861;SDS011;27537;57.134;-2.136;2023-03-01T00:56:25;5.10;;;1.50;;
41861;SDS011;27537;57.134;-2.136;2023-03-01T00:58:52;6.28;;;1.70;;
41861;SDS011;27537;57.134;-2.136;2023-03-01T01:01:23;7.18;;;1.90;;
41861;SDS011;27537;57.134;-2.136;2023-03-01T01:03:54;5.10;;;1.40;;
41861;SDS011;27537;57.134;-2.136;2023-03-01T01:06:35;5.07;;;1.70;;
41861;SDS011;27537;57.134;-2.136;2023-03-01T01:09:05;4.78;;;1.50;;
41861;SDS011;27537;57.134;-2.136;2023-03-01T01:11:33;2.38;;;1.20;;
41861;SDS011;27537;57.134;-2.136;2023-03-01T01:14:02;4.15;;;1.45;;
41861;SDS011;27537;57.134;-2.136;2023-03-01T01:16:29;5.00;;;1.50;;
41861;SDS011;27537;57.134;-2.136;2023-03-01T01:18:57;5.70;;;1.60;;
41861;SDS011;27537;57.134;-2.136;2023-03-01T01:21:29;9.15;;;1.63;;
41861;SDS011;27537;57.134;-2.136;2023-03-01T01:23:56;4.55;;;1.50;;
41861;SDS011;27537;57.134;-2.136;2023-03-01T01:26:24;3.05;;;1.40;;
41861;SDS011;27537;57.134;-2.136;2023-03-01T01:28:52;3.75;;;1.45;;
41861;SDS011;27537;57.134;-2.136;2023-03-01T01:31:20;8.68;;;1.50;;
41861;SDS011;27537;57.134;-2.136;2023-03-01T01:33:50;5.40;;;1.50;;
41861;SDS011;27537;57.134;-2.136;2023-03-01T01:36:17;4.57;;;1.20;;
41861;SDS011;27537;57.134;-2.136;2023-03-01T01:38:44;5.97;;;1.50;;
41861;SDS011;27537;57.134;-2.136;2023-03-01T01:41:12;5.47;;;1.50;;
41861;SDS011;27537;57.134;-2.136;2023-03-01T01:43:40;3.40;;;1.20;;
41861;SDS011;27537;57.134;-2.136;2023-03-01T01:46:17;6.78;;;1.50;;
41861;SDS011;27537;57.134;-2.136;2023-03-01T01:48:52;3.08;;;1.30;;
41861;SDS011;27537;57.134;-2.136;2023-03-01T01:51:37;3.08;;;1.35;;
41861;SDS011;27537;57.134;-2.136;2023-03-01T01:54:14;4.72;;;1.50;;
41861;SDS011;27537;57.134;-2.136;2023-03-01T01:56:48;2.58;;;1.10;;
41861;SDS011;27537;57.134;-2.136;2023-03-01T01:59:21;3.92;;;1.30;;
41861;SDS011;27537;57.134;-2.136;2023-03-01T02:01:54;3.75;;;1.40;;
41861;SDS011;27537;57.134;-2.136;2023-03-01T02:04:21;3.50;;;1.30;;
41861;SDS011;27537;57.134;-2.136;2023-03-01T02:07:09;3.75;;;1.20;;
41861;SDS011;27537;57.134;-2.136;2023-03-01T02:09:47;3.05;;;1.40;;
41861;SDS011;27537;57.134;-2.136;2023-03-01T02:12:16;4.43;;;1.40;;
41861;SDS011;27537;57.134;-2.136;2023-03-01T02:14:44;3.58;;;1.20;;
41861;SDS011;27537;57.134;-2.136;2023-03-01T02:17:11;2.58;;;1.27;;
41861;SDS011;27537;57.134;-2.136;2023-03-01T02:22:34;2.72;;;1.30;;
41861;SDS011;27537;57.134;-2.136;2023-03-01T02:30:42;4.63;;;1.30;;
41861;SDS011;27537;57.134;-2.136;2023-03-01T02:33:29;4.75;;;1.30;;
41861;SDS011;27537;57.134;-2.136;2023-03-01T02:36:00;3.20;;;1.15;;
41861;SDS011;27537;57.134;-2.136;2023-03-01T02:38:31;5.43;;;1.85;;
41861;SDS011;27537;57.134;-2.136;2023-03-01T02:40:58;5.50;;;1.55;;
41861;SDS011;27537;57.134;-2.136;2023-03-01T02:43:29;6.95;;;1.42;;
41861;SDS011;27537;57.134;-2.136;2023-03-01T02:45:59;2.97;;;1.48;;
41861;SDS011;27537;57.134;-2.136;2023-03-01T02:48:39;7.07;;;1.40;;
41861;SDS011;27537;57.134;-2.136;2023-03-01T02:54:08;4.57;;;1.30;;
41861;SDS011;27537;57.134;-2.136;2023-03-01T02:59:23;3.55;;;1.20;;
41861;SDS011;27537;57.134;-2.136;2023-03-01T03:02:24;14.07;;;1.70;;
41861;SDS011;27537;57.134;-2.136;2023-03-01T03:05:09;5.22;;;1.23;;
41861;SDS011;27537;57.134;-2.136;2023-03-01T03:07:40;2.63;;;1.10;;
41861;SDS011;27537;57.134;-2.136;2023-03-01T03:10:11;7.78;;;1.98;;
41861;SDS011;27537;57.134;-2.136;2023-03-01T03:12:40;6.47;;;1.40;;
41861;SDS011;27537;57.134;-2.136;2023-03-01T03:15:08;8.10;;;1.52;;
41861;SDS011;27537;57.134;-2.136;2023-03-01T03:17:39;7.28;;;1.55;;
41861;SDS011;27537;57.134;-2.136;2023-03-01T03:20:07;3.33;;;1.38;;
41861;SDS011;27537;57.134;-2.136;2023-03-01T03:22:38;5.88;;;1.38;;
41861;SDS011;27537;57.134;-2.136;2023-03-01T03:25:07;5.40;;;1.42;;
41861;SDS011;27537;57.134;-2.136;2023-03-01T03:27:38;4.60;;;1.45;;
41861;SDS011;27537;57.134;-2.136;2023-03-01T03:30:06;5.85;;;1.50;;
41861;SDS011;27537;57.134;-2.136;2023-03-01T03:32:35;3.58;;;1.48;;
41861;SDS011;27537;57.134;-2.136;2023-03-01T03:35:06;11.73;;;2.47;;
41861;SDS011;27537;57.134;-2.136;2023-03-01T03:37:38;6.55;;;1.60;;
41861;SDS011;27537;57.134;-2.136;2023-03-01T03:40:24;6.45;;;1.55;;
41861;SDS011;27537;57.134;-2.136;2023-03-01T03:42:52;4.38;;;1.63;;
41861;SDS011;27537;57.134;-2.136;2023-03-01T03:45:18;3.97;;;1.42;;
41861;SDS011;27537;57.134;-2.136;2023-03-01T03:47:45;3.60;;;1.33;;
41861;SDS011;27537;57.134;-2.136;2023-03-01T03:50:13;5.18;;;1.50;;
41861;SDS011;27537;57.134;-2.136;2023-03-01T03:52:41;5.50;;;1.27;;
41861;SDS011;27537;57.134;-2.136;2023-03-01T03:55:10;5.65;;;1.50;;
41861;SDS011;27537;57.134;-2.136;2023-03-01T03:57:38;4.22;;;1.23;;
41861;SDS011;27537;57.134;-2.136;2023-03-01T04:00:09;3.80;;;1.50;;
41861;SDS011;27537;57.134;-2.136;2023-03-01T04:02:42;4.35;;;1.40;;
41861;SDS011;27537;57.134;-2.136;2023-03-01T04:05:10;2.40;;;1.20;;
41861;SDS011;27537;57.134;-2.136;2023-03-01T04:07:40;5.32;;;1.50;;
41861;SDS011;27537;57.134;-2.136;2023-03-01T04:10:13;4.85;;;1.25;;
41861;SDS011;27537;57.134;-2.136;2023-03-01T04:12:43;4.85;;;1.60;;
41861;SDS011;27537;57.134;-2.136;2023-03-01T04:15:11;3.38;;;1.40;;
41861;SDS011;27537;57.134;-2.136;2023-03-01T04:17:45;4.72;;;1.20;;
41861;SDS011;27537;57.134;-2.136;2023-03-01T04:20:14;6.00;;;1.58;;
41861;SDS011;27537;57.134;-2.136;2023-03-01T04:22:43;8.90;;;2.03;;
41861;SDS011;27537;57.134;-2.136;2023-03-01T04:25:13;4.97;;;1.42;;
41861;SDS011;27537;57.134;-2.136;2023-03-01T04:27:40;5.47;;;1.60;;
41861;SDS011;27537;57.134;-2.136;2023-03-01T04:30:07;6.40;;;1.70;;
41861;SDS011;27537;57.134;-2.136;2023-03-01T04:32:35;7.32;;;1.70;;
41861;SDS011;27537;57.134;-2.136;2023-03-01T04:35:01;4.35;;;1.35;;
41861;SDS011;27537;57.134;-2.136;2023-03-01T04:37:28;4.75;;;1.45;;
41861;SDS011;27537;57.134;-2.136;2023-03-01T04:39:56;3.92;;;1.52;;
41861;SDS011;27537;57.134;-2.136;2023-03-01T04:42:22;2.33;;;1.35;;
41861;SDS011;27537;57.134;-2.136;2023-03-01T04:44:49;3.08;;;1.20;;
41861;SDS011;27537;57.134;-2.136;2023-03-01T04:47:17;2.58;;;1.10;;
41861;SDS011;27537;57.134;-2.136;2023-03-01T04:49:44;5.25;;;1.17;;
41861;SDS011;27537;57.134;-2.136;2023-03-01T04:52:10;5.45;;;2.05;;
41861;SDS011;27537;57.134;-2.136;2023-03-01T04:54:37;6.47;;;1.88;;
41861;SDS011;27537;57.134;-2.136;2023-03-01T04:57:04;4.25;;;1.13;;
41861;SDS011;27537;57.134;-2.136;2023-03-01T04:59:30;7.40;;;1.33;;
41861;SDS011;27537;57.134;-2.136;2023-03-01T05:01:57;3.10;;;1.40;;
41861;SDS011;27537;57.134;-2.136;2023-03-01T05:04:24;2.63;;;1.23;;
41861;SDS011;27537;57.134;-2.136;2023-03-01T05:06:51;5.82;;;1.30;;
41861;SDS011;27537;57.134;-2.136;2023-03-01T05:09:19;3.17;;;1.20;;
41861;SDS011;27537;57.134;-2.136;2023-03-01T05:11:46;5.15;;;1.23;;
41861;SDS011;27537;57.134;-2.136;2023-03-01T05:14:13;5.53;;;1.40;;
41861;SDS011;27537;57.134;-2.136;2023-03-01T05:16:39;2.45;;;1.10;;
41861;SDS011;27537;57.134;-2.136;2023-03-01T05:19:06;4.90;;;1.40;;
41861;SDS011;27537;57.134;-2.136;2023-03-01T05:21:42;4.88;;;1.42;;
41861;SDS011;27537;57.134;-2.136;2023-03-01T05:24:28;3.85;;;1.30;;
41861;SDS011;27537;57.134;-2.136;2023-03-01T05:26:56;5.40;;;1.40;;
41861;SDS011;27537;57.134;-2.136;2023-03-01T05:29:23;4.55;;;1.40;;
41861;SDS011;27537;57.134;-2.136;2023-03-01T05:31:52;5.75;;;2.17;;
41861;SDS011;27537;57.134;-2.136;2023-03-01T05:34:31;3.65;;;1.58;;
41861;SDS011;27537;57.134;-2.136;2023-03-01T05:37:00;6.13;;;1.60;;
41861;SDS011;27537;57.134;-2.136;2023-03-01T05:39:28;3.80;;;1.52;;
41861;SDS011;27537;57.134;-2.136;2023-03-01T05:41:56;5.50;;;1.60;;
41861;SDS011;27537;57.134;-2.136;2023-03-01T05:44:24;5.68;;;1.50;;
41861;SDS011;27537;57.134;-2.136;2023-03-01T05:46:52;6.88;;;1.60;;
41861;SDS011;27537;57.134;-2.136;2023-03-01T05:49:19;6.05;;;1.70;;
41861;SDS011;27537;57.134;-2.136;2023-03-01T05:51:50;4.57;;;1.60;;
41861;SDS011;27537;57.134;-2.136;2023-03-01T05:54:19;3.80;;;1.48;;
41861;SDS011;27537;57.134;-2.136;2023-03-01T05:56:46;7.50;;;1.80;;
41861;SDS011;27537;57.134;-2.136;2023-03-01T05:59:13;6.60;;;1.65;;
41861;SDS011;27537;57.134;-2.136;2023-03-01T06:01:42;6.47;;;1.70;;
41861;SDS011;27537;57.134;-2.136;2023-03-01T06:04:09;6.18;;;1.60;;
41861;SDS011;27537;57.134;-2.136;2023-03-01T06:06:38;6.28;;;1.40;;
41861;SDS011;27537;57.134;-2.136;2023-03-01T06:09:06;5.32;;;1.83;;
41861;SDS011;27537;57.134;-2.136;2023-03-01T06:11:35;3.60;;;1.35;;
41861;SDS011;27537;57.134;-2.136;2023-03-01T06:14:03;7.82;;;1.90;;
41861;SDS011;27537;57.134;-2.136;2023-03-01T06:16:32;4.32;;;1.55;;
41861;SDS011;27537;57.134;-2.136;2023-03-01T06:18:59;4.35;;;1.60;;
41861;SDS011;27537;57.134;-2.136;2023-03-01T06:21:26;8.23;;;1.42;;
41861;SDS011;27537;57.134;-2.136;2023-03-01T06:23:53;5.78;;;1.63;;
41861;SDS011;27537;57.134;-2.136;2023-03-01T06:26:19;4.18;;;1.50;;
41861;SDS011;27537;57.134;-2.136;2023-03-01T06:28:46;5.47;;;1.45;;
41861;SDS011;27537;57.134;-2.136;2023-03-01T06:31:13;3.53;;;1.45;;
41861;SDS011;27537;57.134;-2.136;2023-03-01T06:33:40;7.63;;;2.10;;
41861;SDS011;27537;57.134;-2.136;2023-03-01T06:36:09;4.90;;;1.58;;
41861;SDS011;27537;57.134;-2.136;2023-03-01T06:38:36;5.80;;;1.63;;
41861;SDS011;27537;57.134;-2.136;2023-03-01T06:41:03;7.53;;;1.88;;
41861;SDS011;27537;57.134;-2.136;2023-03-01T06:43:30;5.50;;;1.30;;
41861;SDS011;27537;57.134;-2.136;2023-03-01T06:45:57;7.38;;;1.52;;
41861;SDS011;27537;57.134;-2.136;2023-03-01T06:48:23;4.38;;;1.42;;
41861;SDS011;27537;57.134;-2.136;2023-03-01T06:50:50;3.83;;;1.30;;
41861;SDS011;27537;57.134;-2.136;2023-03-01T06:53:17;3.17;;;1.25;;
41861;SDS011;27537;57.134;-2.136;2023-03-01T06:55:43;2.08;;;1.10;;
41861;SDS011;27537;57.134;-2.136;2023-03-01T06:58:10;2.80;;;1.20;;
41861;SDS011;27537;57.134;-2.136;2023-03-01T07:00:37;3.35;;;1.27;;
41861;SDS011;27537;57.134;-2.136;2023-03-01T07:03:06;3.00;;;1.27;;
41861;SDS011;27537;57.134;-2.136;2023-03-01T07:05:33;10.13;;;1.45;;
41861;SDS011;27537;57.134;-2.136;2023-03-01T07:08:00;3.88;;;1.13;;
41861;SDS011;27537;57.134;-2.136;2023-03-01T07:10:27;4.47;;;1.30;;
41861;SDS011;27537;57.134;-2.136;2023-03-01T07:12:55;2.88;;;1.23;;
41861;SDS011;27537;57.134;-2.136;2023-03-01T07:15:22;5.15;;;1.40;;
41861;SDS011;27537;57.134;-2.136;2023-03-01T07:17:49;6.05;;;1.23;;
41861;SDS011;27537;57.134;-2.136;2023-03-01T07:20:18;5.53;;;1.23;;
41861;SDS011;27537;57.134;-2.136;2023-03-01T07:22:47;6.47;;;1.30;;
41861;SDS011;27537;57.134;-2.136;2023-03-01T07:25:14;2.65;;;1.10;;
41861;SDS011;27537;57.134;-2.136;2023-03-01T07:27:41;3.42;;;1.50;;
41861;SDS011;27537;57.134;-2.136;2023-03-01T07:30:08;5.15;;;1.15;;
41861;SDS011;27537;57.134;-2.136;2023-03-01T07:32:35;5.20;;;1.00;;
41861;SDS011;27537;57.134;-2.136;2023-03-01T07:35:02;3.97;;;1.20;;
41861;SDS011;27537;57.134;-2.136;2023-03-01T07:37:29;1.88;;;1.00;;
41861;SDS011;27537;57.134;-2.136;2023-03-01T07:39:56;4.47;;;1.30;;
41861;SDS011;27537;57.134;-2.136;2023-03-01T07:42:23;5.60;;;1.40;;
41861;SDS011;27537;57.134;-2.136;2023-03-01T07:44:50;3.03;;;1.20;;
41861;SDS011;27537;57.134;-2.136;2023-03-01T07:47:17;5.43;;;2.10;;
41861;SDS011;27537;57.134;-2.136;2023-03-01T07:49:44;3.65;;;1.10;;
41861;SDS011;27537;57.134;-2.136;2023-03-01T07:52:11;2.58;;;1.20;;
41861;SDS011;27537;57.134;-2.136;2023-03-01T07:54:38;6.50;;;1.30;;
41861;SDS011;27537;57.134;-2.136;2023-03-01T07:57:05;4.57;;;1.15;;
41861;SDS011;27537;57.134;-2.136;2023-03-01T07:59:32;7.13;;;1.27;;
41861;SDS011;27537;57.134;-2.136;2023-03-01T08:01:59;4.05;;;1.10;;
41861;SDS011;27537;57.134;-2.136;2023-03-01T08:04:26;10.77;;;1.48;;
41861;SDS011;27537;57.134;-2.136;2023-03-01T08:06:54;4.50;;;1.30;;
41861;SDS011;27537;57.134;-2.136;2023-03-01T08:09:21;3.50;;;1.30;;
41861;SDS011;27537;57.134;-2.136;2023-03-01T08:11:48;4.20;;;1.30;;
41861;SDS011;27537;57.134;-2.136;2023-03-01T08:14:15;4.35;;;1.60;;
41861;SDS011;27537;57.134;-2.136;2023-03-01T08:16:42;4.13;;;1.33;;
41861;SDS011;27537;57.134;-2.136;2023-03-01T08:19:10;7.82;;;1.38;;
41861;SDS011;27537;57.134;-2.136;2023-03-01T08:21:38;5.60;;;1.60;;
41861;SDS011;27537;57.134;-2.136;2023-03-01T08:24:05;4.65;;;1.35;;
41861;SDS011;27537;57.134;-2.136;2023-03-01T08:26:33;4.65;;;1.50;;
41861;SDS011;27537;57.134;-2.136;2023-03-01T08:29:00;4.03;;;1.50;;
41861;SDS011;27537;57.134;-2.136;2023-03-01T08:31:37;4.80;;;1.52;;
41861;SDS011;27537;57.134;-2.136;2023-03-01T08:34:10;3.58;;;1.35;;
41861;SDS011;27537;57.134;-2.136;2023-03-01T08:36:40;4.70;;;1.60;;
41861;SDS011;27537;57.134;-2.136;2023-03-01T08:39:09;4.97;;;1.30;;
41861;SDS011;27537;57.134;-2.136;2023-03-01T08:41:38;4.88;;;1.40;;
41861;SDS011;27537;57.134;-2.136;2023-03-01T08:44:05;4.72;;;1.40;;
41861;SDS011;27537;57.134;-2.136;2023-03-01T08:46:34;3.55;;;1.38;;
41861;SDS011;27537;57.134;-2.136;2023-03-01T08:49:10;6.75;;;1.40;;
41861;SDS011;27537;57.134;-2.136;2023-03-01T08:51:38;5.50;;;1.60;;
41861;SDS011;27537;57.134;-2.136;2023-03-01T08:54:06;4.85;;;1.67;;
41861;SDS011;27537;57.134;-2.136;2023-03-01T08:56:37;6.90;;;1.85;;
41861;SDS011;27537;57.134;-2.136;2023-03-01T08:59:04;5.70;;;1.63;;
41861;SDS011;27537;57.134;-2.136;2023-03-01T09:01:31;6.45;;;1.55;;
41861;SDS011;27537;57.134;-2.136;2023-03-01T09:03:58;5.53;;;1.48;;
41861;SDS011;27537;57.134;-2.136;2023-03-01T09:06:25;5.65;;;1.50;;
41861;SDS011;27537;57.134;-2.136;2023-03-01T09:08:52;5.50;;;1.70;;
41861;SDS011;27537;57.134;-2.136;2023-03-01T09:11:19;8.15;;;2.03;;
41861;SDS011;27537;57.134;-2.136;2023-03-01T09:13:48;3.58;;;1.38;;
41861;SDS011;27537;57.134;-2.136;2023-03-01T09:16:16;5.05;;;1.35;;
41861;SDS011;27537;57.134;-2.136;2023-03-01T09:18:44;5.15;;;2.75;;
41861;SDS011;27537;57.134;-2.136;2023-03-01T09:21:13;5.47;;;1.50;;
41861;SDS011;27537;57.134;-2.136;2023-03-01T09:23:44;3.45;;;1.20;;
41861;SDS011;27537;57.134;-2.136;2023-03-01T09:26:14;4.13;;;1.30;;
41861;SDS011;27537;57.134;-2.136;2023-03-01T09:28:43;6.53;;;1.30;;
41861;SDS011;27537;57.134;-2.136;2023-03-01T09:31:12;5.20;;;1.38;;
41861;SDS011;27537;57.134;-2.136;2023-03-01T09:33:40;8.27;;;1.30;;
41861;SDS011;27537;57.134;-2.136;2023-03-01T09:36:11;10.13;;;1.63;;
41861;SDS011;27537;57.134;-2.136;2023-03-01T09:38:38;8.13;;;1.55;;
41861;SDS011;27537;57.134;-2.136;2023-03-01T09:43:52;7.70;;;1.95;;
41861;SDS011;27537;57.134;-2.136;2023-03-01T09:46:24;9.48;;;1.58;;
41861;SDS011;27537;57.134;-2.136;2023-03-01T09:49:01;5.05;;;1.40;;
41861;SDS011;27537;57.134;-2.136;2023-03-01T09:51:37;10.95;;;1.50;;
41861;SDS011;27537;57.134;-2.136;2023-03-01T09:54:04;6.28;;;1.45;;
41861;SDS011;27537;57.134;-2.136;2023-03-01T10:04:45;6.53;;;1.50;;
41861;SDS011;27537;57.134;-2.136;2023-03-01T10:09:58;5.85;;;1.30;;
41861;SDS011;27537;57.134;-2.136;2023-03-01T10:12:27;6.28;;;2.00;;
41861;SDS011;27537;57.134;-2.136;2023-03-01T10:17:52;6.60;;;1.50;;
41861;SDS011;27537;57.134;-2.136;2023-03-01T10:20:25;5.35;;;1.40;;
41861;SDS011;27537;57.134;-2.136;2023-03-01T10:22:56;4.53;;;1.52;;
41861;SDS011;27537;57.134;-2.136;2023-03-01T10:28:12;9.65;;;1.73;;
41861;SDS011;27537;57.134;-2.136;2023-03-01T10:30:51;3.25;;;1.25;;
41861;SDS011;27537;57.134;-2.136;2023-03-01T10:33:26;4.57;;;1.50;;
41861;SDS011;27537;57.134;-2.136;2023-03-01T10:35:57;4.85;;;1.50;;
41861;SDS011;27537;57.134;-2.136;2023-03-01T10:38:24;7.35;;;1.88;;
41861;SDS011;27537;57.134;-2.136;2023-03-01T10:46:22;7.00;;;2.10;;
41861;SDS011;27537;57.134;-2.136;2023-03-01T10:49:16;5.38;;;1.48;;
41861;SDS011;27537;57.134;-2.136;2023-03-01T10:51:47;7.88;;;1.60;;
41861;SDS011;27537;57.134;-2.136;2023-03-01T10:54:24;5.28;;;1.45;;
41861;SDS011;27537;57.134;-2.136;2023-03-01T10:56:55;8.50;;;1.75;;
41861;SDS011;27537;57.134;-2.136;2023-03-01T10:59:36;8.85;;;1.50;;
41861;SDS011;27537;57.134;-2.136;2023-03-01T11:07:49;6.18;;;1.85;;
41861;SDS011;27537;57.134;-2.136;2023-03-01T11:10:22;7.13;;;2.03;;
41861;SDS011;27537;57.134;-2.136;2023-03-01T11:15:58;7.45;;;2.05;;
41861;SDS011;27537;57.134;-2.136;2023-03-01T11:18:27;5.60;;;1.55;;
41861;SDS011;27537;57.134;-2.136;2023-03-01T11:21:13;9.10;;;2.03;;
41861;SDS011;27537;57.134;-2.136;2023-03-01T11:23:41;9.73;;;2.33;;
41861;SDS011;27537;57.134;-2.136;2023-03-01T11:26:12;12.23;;;4.00;;
41861;SDS011;27537;57.134;-2.136;2023-03-01T11:28:40;4.60;;;1.50;;
41861;SDS011;27537;57.134;-2.136;2023-03-01T11:31:09;3.72;;;1.33;;
41861;SDS011;27537;57.134;-2.136;2023-03-01T11:33:46;5.47;;;1.27;;
41861;SDS011;27537;57.134;-2.136;2023-03-01T11:42:15;12.27;;;3.60;;
41861;SDS011;27537;57.134;-2.136;2023-03-01T11:44:47;11.40;;;3.80;;
41861;SDS011;27537;57.134;-2.136;2023-03-01T11:58:32;3.50;;;1.42;;
41861;SDS011;27537;57.134;-2.136;2023-03-01T12:01:02;3.75;;;1.40;;
41861;SDS011;27537;57.134;-2.136;2023-03-01T12:18:21;7.68;;;1.52;;
41861;SDS011;27537;57.134;-2.136;2023-03-01T12:29:28;6.00;;;2.17;;
41861;SDS011;27537;57.134;-2.136;2023-03-01T12:32:06;6.10;;;1.48;;
41861;SDS011;27537;57.134;-2.136;2023-03-01T12:43:06;5.90;;;1.45;;
41861;SDS011;27537;57.134;-2.136;2023-03-01T12:45:56;4.82;;;1.52;;
41861;SDS011;27537;57.134;-2.136;2023-03-01T12:51:13;10.20;;;1.77;;
41861;SDS011;27537;57.134;-2.136;2023-03-01T12:53:44;6.93;;;1.88;;
41861;SDS011;27537;57.134;-2.136;2023-03-01T12:56:15;6.80;;;1.80;;
41861;SDS011;27537;57.134;-2.136;2023-03-01T13:01:54;7.32;;;1.70;;
41861;SDS011;27537;57.134;-2.136;2023-03-01T13:09:51;5.50;;;1.50;;
41861;SDS011;27537;57.134;-2.136;2023-03-01T13:12:43;12.93;;;2.20;;
41861;SDS011;27537;57.134;-2.136;2023-03-01T13:15:25;8.00;;;1.90;;
41861;SDS011;27537;57.134;-2.136;2023-03-01T13:17:57;6.60;;;1.63;;
41861;SDS011;27537;57.134;-2.136;2023-03-01T13:23:03;6.35;;;1.67;;
41861;SDS011;27537;57.134;-2.136;2023-03-01T13:31:02;8.35;;;2.22;;
41861;SDS011;27537;57.134;-2.136;2023-03-01T13:33:43;7.13;;;2.33;;
41861;SDS011;27537;57.134;-2.136;2023-03-01T13:38:57;6.78;;;1.55;;
41861;SDS011;27537;57.134;-2.136;2023-03-01T13:46:50;8.85;;;2.28;;
41861;SDS011;27537;57.134;-2.136;2023-03-01T13:49:20;10.45;;;2.00;;
41861;SDS011;27537;57.134;-2.136;2023-03-01T13:51:50;8.88;;;1.95;;
41861;SDS011;27537;57.134;-2.136;2023-03-01T13:54:29;7.18;;;2.08;;
41861;SDS011;27537;57.134;-2.136;2023-03-01T13:57:00;7.20;;;1.88;;
41861;SDS011;27537;57.134;-2.136;2023-03-01T13:59:28;7.78;;;1.77;;
41861;SDS011;27537;57.134;-2.136;2023-03-01T14:01:57;5.97;;;1.40;;
41861;SDS011;27537;57.134;-2.136;2023-03-01T14:04:27;7.50;;;1.70;;
41861;SDS011;27537;57.134;-2.136;2023-03-01T14:07:16;10.23;;;2.47;;
41861;SDS011;27537;57.134;-2.136;2023-03-01T14:09:47;9.75;;;1.83;;
41861;SDS011;27537;57.134;-2.136;2023-03-01T14:20:28;6.60;;;1.77;;
41861;SDS011;27537;57.134;-2.136;2023-03-01T14:22:59;9.13;;;2.10;;
41861;SDS011;27537;57.134;-2.136;2023-03-01T14:25:35;7.72;;;1.85;;
41861;SDS011;27537;57.134;-2.136;2023-03-01T14:28:12;7.97;;;2.20;;
41861;SDS011;27537;57.134;-2.136;2023-03-01T14:30:41;8.98;;;1.98;;
41861;SDS011;27537;57.134;-2.136;2023-03-01T14:33:24;10.00;;;2.60;;
41861;SDS011;27537;57.134;-2.136;2023-03-01T14:43:49;12.75;;;2.78;;
41861;SDS011;27537;57.134;-2.136;2023-03-01T14:46:22;12.65;;;2.55;;
41861;SDS011;27537;57.134;-2.136;2023-03-01T14:49:05;8.25;;;2.53;;
41861;SDS011;27537;57.134;-2.136;2023-03-01T14:51:37;11.15;;;1.92;;
41861;SDS011;27537;57.134;-2.136;2023-03-01T14:54:39;10.52;;;1.92;;
41861;SDS011;27537;57.134;-2.136;2023-03-01T14:57:30;8.48;;;1.73;;
41861;SDS011;27537;57.134;-2.136;2023-03-01T14:59:58;8.35;;;2.38;;
41861;SDS011;27537;57.134;-2.136;2023-03-01T15:02:31;11.65;;;2.63;;
41861;SDS011;27537;57.134;-2.136;2023-03-01T15:05:00;7.28;;;2.17;;
41861;SDS011;27537;57.134;-2.136;2023-03-01T15:07:35;15.57;;;2.47;;
41861;SDS011;27537;57.134;-2.136;2023-03-01T15:10:06;7.97;;;2.50;;
41861;SDS011;27537;57.134;-2.136;2023-03-01T15:12:41;11.98;;;2.55;;
41861;SDS011;27537;57.134;-2.136;2023-03-01T15:17:56;9.50;;;2.95;;
41861;SDS011;27537;57.134;-2.136;2023-03-01T15:20:26;23.38;;;3.40;;
41861;SDS011;27537;57.134;-2.136;2023-03-01T15:22:56;6.55;;;2.00;;
41861;SDS011;27537;57.134;-2.136;2023-03-01T15:25:24;7.88;;;2.65;;
41861;SDS011;27537;57.134;-2.136;2023-03-01T15:27:54;8.52;;;2.83;;
41861;SDS011;27537;57.134;-2.136;2023-03-01T15:35:46;10.93;;;1.80;;
41861;SDS011;27537;57.134;-2.136;2023-03-01T15:41:24;10.52;;;2.10;;
41861;SDS011;27537;57.134;-2.136;2023-03-01T15:43:54;10.68;;;2.75;;
41861;SDS011;27537;57.134;-2.136;2023-03-01T15:48:53;12.88;;;1.88;;
41861;SDS011;27537;57.134;-2.136;2023-03-01T15:51:33;6.47;;;1.85;;
41861;SDS011;27537;57.134;-2.136;2023-03-01T15:54:06;11.57;;;2.35;;
41861;SDS011;27537;57.134;-2.136;2023-03-01T15:56:43;11.27;;;2.50;;
41861;SDS011;27537;57.134;-2.136;2023-03-01T15:59:11;6.78;;;1.52;;
41861;SDS011;27537;57.134;-2.136;2023-03-01T16:01:40;6.78;;;1.70;;
41861;SDS011;27537;57.134;-2.136;2023-03-01T16:04:14;6.00;;;1.75;;
41861;SDS011;27537;57.134;-2.136;2023-03-01T16:06:47;6.63;;;1.60;;
41861;SDS011;27537;57.134;-2.136;2023-03-01T16:09:23;23.00;;;2.33;;
41861;SDS011;27537;57.134;-2.136;2023-03-01T16:11:52;6.38;;;1.90;;
41861;SDS011;27537;57.134;-2.136;2023-03-01T16:14:20;4.10;;;1.23;;
41861;SDS011;27537;57.134;-2.136;2023-03-01T16:16:48;6.47;;;1.75;;
41861;SDS011;27537;57.134;-2.136;2023-03-01T16:19:15;5.22;;;1.40;;
41861;SDS011;27537;57.134;-2.136;2023-03-01T16:21:42;7.97;;;2.78;;
41861;SDS011;27537;57.134;-2.136;2023-03-01T16:24:13;8.38;;;3.08;;
41861;SDS011;27537;57.134;-2.136;2023-03-01T16:26:40;6.85;;;2.00;;
41861;SDS011;27537;57.134;-2.136;2023-03-01T16:29:16;7.18;;;2.00;;
41861;SDS011;27537;57.134;-2.136;2023-03-01T16:32:06;5.38;;;1.67;;
41861;SDS011;27537;57.134;-2.136;2023-03-01T16:34:33;8.38;;;2.40;;
41861;SDS011;27537;57.134;-2.136;2023-03-01T16:37:00;4.60;;;1.55;;
41861;SDS011;27537;57.134;-2.136;2023-03-01T16:39:27;10.55;;;3.30;;
41861;SDS011;27537;57.134;-2.136;2023-03-01T16:41:54;8.27;;;2.72;;
41861;SDS011;27537;57.134;-2.136;2023-03-01T16:44:21;9.25;;;3.20;;
41861;SDS011;27537;57.134;-2.136;2023-03-01T16:46:48;9.27;;;2.97;;
41861;SDS011;27537;57.134;-2.136;2023-03-01T16:49:15;12.05;;;3.72;;
41861;SDS011;27537;57.134;-2.136;2023-03-01T16:51:41;8.52;;;2.28;;
41861;SDS011;27537;57.134;-2.136;2023-03-01T16:54:08;8.70;;;2.70;;
41861;SDS011;27537;57.134;-2.136;2023-03-01T16:56:36;8.07;;;2.42;;
41861;SDS011;27537;57.134;-2.136;2023-03-01T16:59:05;8.70;;;3.03;;
41861;SDS011;27537;57.134;-2.136;2023-03-01T17:01:32;10.85;;;2.80;;
41861;SDS011;27537;57.134;-2.136;2023-03-01T17:04:03;13.82;;;2.83;;
41861;SDS011;27537;57.134;-2.136;2023-03-01T17:06:30;14.68;;;2.45;;
41861;SDS011;27537;57.134;-2.136;2023-03-01T17:08:58;9.93;;;3.42;;
41861;SDS011;27537;57.134;-2.136;2023-03-01T17:11:25;9.73;;;3.45;;
41861;SDS011;27537;57.134;-2.136;2023-03-01T17:13:52;11.63;;;4.65;;
41861;SDS011;27537;57.134;-2.136;2023-03-01T17:16:19;13.70;;;3.08;;
41861;SDS011;27537;57.134;-2.136;2023-03-01T17:18:47;14.70;;;3.53;;
41861;SDS011;27537;57.134;-2.136;2023-03-01T17:21:15;10.75;;;2.95;;
41861;SDS011;27537;57.134;-2.136;2023-03-01T17:23:43;11.82;;;2.95;;
41861;SDS011;27537;57.134;-2.136;2023-03-01T17:26:11;12.40;;;3.33;;
41861;SDS011;27537;57.134;-2.136;2023-03-01T17:28:39;15.80;;;3.10;;